1968 Tropical Cyclone BETSY (1968011S11120)


IBTrACS version v04r00. Visit IBTrACS website for data access.
Please direct all questions to the IBTrACS Q and A forum

Storm track - Intensity - Wind Radii - Intensity Data - Source Data - All data

Summary Information

Storm ID 1968011S11120
Start Jan 10 23Z
Max Intensity 35 kt (Jan 13 12Z), 998 mb (Jan 13 06Z)
End Jan 17 01Z
ATCF IDs ,SH121968
Track status Best track data.

Storm track plot

Map of storm track

Intensity plots

Map of storm track

Radial wind information

No radial wind information for this storm


Position and Intensity Table

BASIN ISO_TIME_________ NATURE LAT LON WMO PRES BOM PRES NEUMANN WIND NEUMANN PRES
degrees north degrees east mb mb kts mb
SI 1968-01-10 23:00:00 NR -11.00 120.20
SI 1968-01-11 00:00:00 TS -11.00 120.19
SI 01:00:00 TS -11.00 120.17 1005 1005
SI 03:00:00 TS -11.00 120.11
SI 06:00:00 TS -11.00 120.02 20 1004
SI 09:00:00 TS -11.00 119.94 20 1004
SI 11:00:00 TS -11.00 119.89 20 1004
SI 12:00:00 TS -11.00 119.87 20 1004
SI 15:00:00 TS -11.00 119.76 22 1003
SI 18:00:00 TS -11.00 119.65 25 1003
SI 21:00:00 TS -11.00 119.58 25 1003
SI 23:00:00 TS -11.00 119.54 25 1003
SI 1968-01-12 00:00:00 TS -11.00 119.51 25 1003
SI 01:00:00 TS -11.00 119.47 1003 1003 25 1003
SI 03:00:00 TS -11.00 119.43 25 1003
SI 06:00:00 TS -11.00 119.37 25 1003
SI 09:00:00 TS -11.00 119.33 25 1003
SI 11:00:00 TS -11.00 119.32 25 1003
SI 12:00:00 TS -11.00 119.31 25 1003
SI 15:00:00 TS -10.98 119.32 25 1003
SI 18:00:00 TS -10.96 119.29 25 1003
SI 21:00:00 TS -10.95 119.19 25 1003
SI 23:00:00 TS -10.95 119.07 25 1003
SI 1968-01-13 00:00:00 TS -10.95 118.99 25 1003
SI 01:00:00 TS -10.95 118.89 1003 1003 25 1002
SI 03:00:00 TS -10.97 118.67 1000 27 1001
SI 06:00:00 TS -10.99 118.30 998 998 30 999
SI 09:00:00 TS -11.00 117.95 32 998
SI 11:00:00 TS -11.01 117.71 34 998
SI 12:00:00 TS -11.02 117.60 35 998
SI 15:00:00 TS -11.05 117.24 35 998
SI 18:00:00 TS -11.08 116.89 35 998
SI 21:00:00 TS -11.11 116.54 35 998
SI 23:00:00 TS -11.13 116.30 35 998
SI 1968-01-14 00:00:00 TS -11.15 116.18 35 998
SI 01:00:00 TS -11.16 116.05 998 998 35 998
SI 03:00:00 TS -11.19 115.79 35 998
SI 06:00:00 TS -11.28 115.39 35 998
SI 09:00:00 TS -11.42 115.00 35 998
SI 11:00:00 TS -11.53 114.74 35 998
SI 12:00:00 TS -11.59 114.61 35 998
SI 15:00:00 TS -11.76 114.20 35 998
SI 18:00:00 TS -11.95 113.80 35 998
SI 21:00:00 TS -12.15 113.43 35 998
SI 23:00:00 TS -12.29 113.21 35 998
SI 1968-01-15 00:00:00 TS -12.35 113.10 35 998
SI 01:00:00 TS -12.40 113.01 998 998 35 998
SI 03:00:00 TS -12.51 112.82 35 998
SI 06:00:00 TS -12.67 112.57 35 998
SI 09:00:00 TS -12.84 112.31 35 998
SI 11:00:00 TS -12.96 112.15 35 998
SI 12:00:00 TS -13.03 112.07 35 998
SI 15:00:00 TS -13.24 111.82 32 998
SI 18:00:00 TS -13.46 111.57 30 999
SI 21:00:00 TS -13.67 111.33 30 999
SI 23:00:00 TS -13.80 111.16 30 999
SI 1968-01-16 00:00:00 TS -13.85 111.08 30 999
SI 01:00:00 TS -13.90 111.00 1000 1000 30 999
SI 03:00:00 TS -13.99 110.84 30 999
SI 06:00:00 TS -14.11 110.60 30 1000
SI 09:00:00 TS -14.26 110.35 30 1000
SI 11:00:00 TS -14.37 110.18 30 1000
SI 12:00:00 TS -14.42 110.09 30 1000
SI 15:00:00 TS -14.57 109.83 27 1000
SI 18:00:00 TS -14.71 109.56 25 1001
SI 21:00:00 TS -14.85 109.30 25 1001
SI 23:00:00 TS -14.93 109.13 25 1001
SI 1968-01-17 00:00:00 TS -14.96 109.04 25 1001
SI 01:00:00 NR -15.00 108.90 1002 1002

Source Information

Agency Information
USA bsh121968.txt
TOKYO
CMA
HKO
NEWDELHI
REUNION
BOM IDCKMSTM0S.csv:Line=4964:BETSY
NADI
WELLINGTON
DS824 s_hem.dat:1049:12S
TD9636 cons_worldwide_trop_cyclone_18710101-19891231-006:Line=7865
TD9635
NEUMANN tracks.sh:Storm=208:BETSY:BSH1268:BM364
MLC

All available IBTrACS Data

SEASON BASIN SUBBASIN ISO_TIME_________ NATURE LAT LON WMO PRES WMO AGENCY DIST2LAND LANDFALL IFLAG USA AGENCY USA ATCF_ID USA LAT USA LON USA SSHS BOM LAT BOM LON BOM PRES BOM PRES_METHOD DS824 LAT DS824 LON DS824 STAGE TD9636 LAT TD9636 LON TD9636 STAGE NEUMANN LAT NEUMANN LON NEUMANN CLASS NEUMANN WIND NEUMANN PRES STORM SPEED STORM DIR
Year degrees north degrees east mb km km degrees north degrees east 1 degrees north degrees east mb degrees north degrees east degrees north degrees east degrees north degrees east kts mb kts degrees
1968 SI WA 1968-01-10 23:00:00 NR -11.00 120.20 84 84 __________O___ -1 -11.00 120.20 7 1 0
1968 SI WA 1968-01-11 00:00:00 TS -11.00 120.19 84 84 O________OP___ jtwc_sh SH121968 -11.00 120.20 -1 -11.00 120.20 TC -11.00 120.18 7 1 0
1968 SI WA 01:00:00 TS -11.00 120.17 1005 bom 84 84 P_____O__PP___ SH121968 -11.00 120.16 -1 -11.00 120.30 1005 -11.00 120.16 TC -11.00 120.15 7 2 270
1968 SI WA 03:00:00 TS -11.00 120.11 89 89 P_____P__PP___ SH121968 -11.00 120.09 -1 -11.00 120.18 -11.00 120.09 TC -11.00 120.10 7 2 270
1968 SI WA 06:00:00 TS -11.00 120.02 92 92 O_____P__OP_O_ jtwc_sh SH121968 -11.00 120.00 -1 -11.00 120.00 -11.00 120.00 TC -11.00 120.03 7 -11.00 120.20 TC 20 1004 2 270
1968 SI WA 09:00:00 TS -11.00 119.94 95 95 P_____P__PP_P_ SH121968 -11.00 119.95 -1 -11.00 119.83 -11.00 119.95 TC -11.00 119.95 7 -11.00 120.11 TC 20 1004 1 270
1968 SI WA 11:00:00 TS -11.00 119.89 95 95 P_____P__PO_P_ SH121968 -11.00 119.92 -1 -11.00 119.73 -11.00 119.92 TC -11.00 119.90 7 -11.00 120.04 TC 20 1004 1 270
1968 SI WA 12:00:00 TS -11.00 119.87 95 95 O_____P__OP_O_ jtwc_sh SH121968 -11.00 119.90 -1 -11.00 119.68 -11.00 119.90 TC -11.00 119.88 7 -11.00 120.00 TC 20 1004 2 270
1968 SI WA 15:00:00 TS -11.00 119.76 99 99 P_____P__PP_P_ SH121968 -11.00 119.80 -1 -11.00 119.54 -11.00 119.80 TC -11.00 119.80 7 -11.00 119.85 TC 22 1003 2 270
1968 SI WA 18:00:00 TS -11.00 119.65 104 104 O_____P__OP_O_ jtwc_sh SH121968 -11.00 119.70 -1 -11.00 119.43 -11.00 119.70 TC -11.00 119.73 7 -11.00 119.70 TC 25 1003 2 270
1968 SI WA 21:00:00 TS -11.00 119.58 111 111 P_____P__PP_P_ SH121968 -11.00 119.65 -1 -11.00 119.35 -11.00 119.65 TC -11.00 119.65 7 -11.00 119.59 TC 25 1003 1 270
1968 SI WA 23:00:00 TS -11.00 119.54 117 117 P_____P__PO_P_ SH121968 -11.00 119.62 -1 -11.00 119.32 -11.00 119.62 TC -11.00 119.60 7 -11.00 119.53 TC 25 1003 1 270
1968 SI WA 1968-01-12 00:00:00 TS -11.00 119.51 117 117 O_____P__OP_O_ jtwc_sh SH121968 -11.00 119.60 -1 -11.00 119.31 -11.00 119.60 TC -11.00 119.57 7 -11.00 119.50 TC 25 1003 2 269
1968 SI WA 01:00:00 TS -11.00 119.47 1003 bom 117 117 P_____O__PP_P_ SH121968 -11.00 119.57 -1 -11.00 119.30 1003 -11.00 119.57 TC -11.00 119.55 7 -11.00 119.46 TC 25 1003 2 269
1968 SI WA 03:00:00 TS -11.00 119.43 125 125 P_____P__PP_P_ SH121968 -11.00 119.50 -1 -11.00 119.30 -11.00 119.50 TC -11.01 119.49 7 -11.00 119.39 TC 25 1003 1 269
1968 SI WA 06:00:00 TS -11.00 119.37 125 125 O_____P__OP_O_ jtwc_sh SH121968 -11.00 119.40 -1 -11.00 119.32 -11.00 119.40 TC -11.01 119.42 7 -11.00 119.30 TC 25 1003 1 268
1968 SI WA 09:00:00 TS -11.00 119.33 133 133 P_____P__PP_P_ SH121968 -11.01 119.33 -1 -11.00 119.36 -11.01 119.33 TC -11.01 119.34 7 -11.00 119.24 TC 25 1003 1 269
1968 SI WA 11:00:00 TS -11.00 119.32 133 133 P_____P__PO_P_ SH121968 -11.01 119.30 -1 -11.00 119.38 -11.01 119.30 TC -11.00 119.30 1 -11.00 119.21 TC 25 1003 0 0
1968 SI WA 12:00:00 TS -11.00 119.31 133 133 O_____P__OP_O_ jtwc_sh SH121968 -11.00 119.30 -1 -11.00 119.38 -11.00 119.30 TC -10.99 119.30 1 -11.00 119.20 TC 25 1003 0 0
1968 SI WA 15:00:00 TS -10.98 119.32 133 133 P_____P__PP_P_ SH121968 -10.95 119.37 -1 -11.00 119.38 -10.95 119.37 TC -10.96 119.30 1 -11.00 119.15 TC 25 1003 0 0
1968 SI WA 18:00:00 TS -10.96 119.29 133 123 O_____P__OP_O_ jtwc_sh SH121968 -10.90 119.40 -1 -11.00 119.32 -10.90 119.40 TC -10.93 119.28 1 -11.00 119.10 TC 25 1003 1 283
1968 SI WA 21:00:00 TS -10.95 119.19 125 125 P_____P__PP_P_ SH121968 -10.88 119.27 -1 -11.00 119.20 -10.88 119.27 TC -10.91 119.20 1 -11.00 119.08 TC 25 1003 3 272
1968 SI WA 23:00:00 TS -10.95 119.07 127 127 P_____P__PO_P_ SH121968 -10.89 119.10 -1 -11.00 119.07 -10.89 119.10 TC -10.90 119.10 7 -11.00 119.04 TC 25 1003 4 269
1968 SI WA 1968-01-13 00:00:00 TS -10.95 118.99 141 141 O_____P__OP_O_ jtwc_sh SH121968 -10.90 119.00 -1 -11.00 118.99 -10.90 119.00 TC -10.90 119.02 7 -11.00 119.00 TC 25 1003 5 268
1968 SI WA 01:00:00 TS -10.95 118.89 1003 bom 145 145 P_____O__PP_P_ SH121968 -10.91 118.89 -1 -11.00 118.90 1003 -10.91 118.89 TC -10.91 118.92 7 -11.00 118.94 TC 25 1002 6 267
1968 SI WA 03:00:00 TS -10.97 118.67 152 152 P_____P__PP_P_ SH121968 -10.95 118.62 -1 -11.00 118.67 1000 -10.95 118.62 TC -10.92 118.70 7 -10.99 118.79 TC 27 1001 7 266
1968 SI WA 06:00:00 TS -10.99 118.30 998 bom 169 169 O_____O__OP_O_ jtwc_sh SH121968 -11.00 118.20 -1 -11.00 118.30 998 4 -11.00 118.20 TC -10.95 118.31 7 -11.00 118.50 TC 30 999 7 267
1968 SI WA 09:00:00 TS -11.00 117.95 196 196 P_____P__PP_P_ SH121968 -11.00 117.85 -1 -11.00 117.96 -11.00 117.85 TC -10.98 117.88 7 -11.05 118.16 TC 32 998 7 268
1968 SI WA 11:00:00 TS -11.01 117.71 211 211 P_____P__PO_P_ SH121968 -11.00 117.62 -1 -11.00 117.74 -11.00 117.62 TC -11.00 117.60 2 -11.09 117.92 TC 34 998 7 267
1968 SI WA 12:00:00 TS -11.02 117.60 219 213 O_____P__OP_O_ jtwc_sh SH121968 -11.00 117.50 -1 -11.00 117.63 -11.00 117.50 TC -11.01 117.47 2 -11.10 117.80 TC 35 998 7 266
1968 SI WA 15:00:00 TS -11.05 117.24 213 213 P_____P__PP_P_ SH121968 -11.05 117.10 -1 -11.02 117.31 -11.05 117.10 TC -11.03 117.10 2 -11.10 117.50 TC 35 998 7 265
1968 SI WA 18:00:00 TS -11.08 116.89 224 224 O_____P__OP_O_ jtwc_sh SH121968 -11.10 116.70 -1 -11.04 116.99 -11.10 116.70 TC -11.05 116.72 2 -11.10 117.20 TC 35 998 7 265
1968 SI WA 21:00:00 TS -11.11 116.54 230 230 P_____P__PP_P_ SH121968 -11.11 116.35 -1 -11.09 116.66 -11.11 116.35 TC -11.08 116.35 2 -11.13 116.86 TC 35 998 7 264
1968 SI WA 23:00:00 TS -11.13 116.30 235 235 P_____P__PO_P_ SH121968 -11.10 116.12 -1 -11.14 116.43 -11.10 116.12 TC -11.10 116.10 7 -11.17 116.62 TC 35 998 7 264
1968 SI WA 1968-01-14 00:00:00 TS -11.15 116.18 236 236 O_____P__OP_O_ jtwc_sh SH121968 -11.10 116.00 -1 -11.17 116.32 -11.10 116.00 TC -11.11 115.97 7 -11.20 116.50 TC 35 998 7 263
1968 SI WA 01:00:00 TS -11.16 116.05 998 bom 248 248 P_____O__PP_P_ SH121968 -11.09 115.87 -1 -11.20 116.20 998 -11.09 115.87 TC -11.11 115.85 7 -11.22 116.37 TC 35 998 8 263
1968 SI WA 03:00:00 TS -11.19 115.79 255 255 P_____P__PP_P_ SH121968 -11.08 115.60 -1 -11.28 115.94 -11.08 115.60 TC -11.13 115.59 7 -11.28 116.11 TC 35 998 8 260
1968 SI WA 06:00:00 TS -11.28 115.39 276 276 O_____P__OP_O_ jtwc_sh SH121968 -11.10 115.20 -1 -11.43 115.52 -11.10 115.20 TC -11.17 115.22 7 -11.40 115.70 TC 35 998 8 254
1968 SI WA 09:00:00 TS -11.42 115.00 291 291 P_____P__PP_P_ SH121968 -11.23 114.85 -1 -11.60 115.10 -11.23 114.85 TC -11.24 114.84 7 -11.58 115.30 TC 35 998 8 248
1968 SI WA 11:00:00 TS -11.53 114.74 302 302 P_____P__PO_P_ SH121968 -11.34 114.62 -1 -11.73 114.81 -11.34 114.62 TC -11.30 114.60 7 -11.73 115.03 TC 35 998 8 245
1968 SI WA 12:00:00 TS -11.59 114.61 313 313 O_____P__OP_O_ jtwc_sh SH121968 -11.40 114.50 -1 -11.79 114.66 -11.40 114.50 TC -11.34 114.47 7 -11.80 114.90 TC 35 998 9 246
1968 SI WA 15:00:00 TS -11.76 114.20 338 338 P_____P__PP_P_ SH121968 -11.54 114.09 -1 -12.00 114.23 -11.54 114.09 TC -11.49 114.10 7 -12.00 114.50 TC 35 998 9 246
1968 SI WA 18:00:00 TS -11.95 113.80 358 358 O_____P__OP_O_ jtwc_sh SH121968 -11.70 113.70 -1 -12.21 113.81 -11.70 113.70 TC -11.68 113.74 7 -12.20 114.10 TC 35 998 8 243
1968 SI WA 21:00:00 TS -12.15 113.43 402 402 P_____P__PP_P_ SH121968 -11.90 113.37 -1 -12.43 113.40 -11.90 113.37 TC -11.87 113.40 7 -12.41 113.69 TC 35 998 8 240
1968 SI WA 23:00:00 TS -12.29 113.21 419 419 P_____P__PO_P_ SH121968 -12.04 113.18 -1 -12.56 113.14 -12.04 113.18 TC -12.00 113.20 7 -12.54 113.43 TC 35 998 8 239
1968 SI WA 1968-01-15 00:00:00 TS -12.35 113.10 421 421 O_____P__OP_O_ jtwc_sh SH121968 -12.10 113.10 -1 -12.63 113.02 -12.10 113.10 TC -12.05 113.11 7 -12.60 113.30 TC 35 998 7 239
1968 SI WA 01:00:00 TS -12.40 113.01 998 bom 434 434 P_____O__PP_P_ SH121968 -12.15 113.02 -1 -12.70 112.90 998 -12.15 113.02 TC -12.11 113.02 7 -12.66 113.17 TC 35 998 6 239
1968 SI WA 03:00:00 TS -12.51 112.82 450 450 P_____P__PP_P_ SH121968 -12.25 112.89 -1 -12.82 112.68 -12.25 112.89 TC -12.22 112.87 7 -12.76 112.93 TC 35 998 6 238
1968 SI WA 06:00:00 TS -12.67 112.57 477 477 O_____P__OP_O_ jtwc_sh SH121968 -12.40 112.70 -1 -12.99 112.38 -12.40 112.70 TC -12.38 112.65 7 -12.90 112.60 TC 35 998 6 236
1968 SI WA 09:00:00 TS -12.84 112.31 494 494 P_____P__PP_P_ SH121968 -12.58 112.46 -1 -13.16 112.09 -12.58 112.46 TC -12.57 112.44 7 -13.04 112.33 TC 35 998 6 234
1968 SI WA 11:00:00 TS -12.96 112.15 517 517 P_____P__PO_P_ SH121968 -12.72 112.29 -1 -13.28 111.92 -12.72 112.29 TC -12.70 112.30 7 -13.14 112.18 TC 35 998 6 232
1968 SI WA 12:00:00 TS -13.03 112.07 517 517 O_____P__OP_O_ jtwc_sh SH121968 -12.80 112.20 -1 -13.33 111.83 -12.80 112.20 TC -12.78 112.22 7 -13.20 112.10 TC 35 998 6 230
1968 SI WA 15:00:00 TS -13.24 111.82 537 537 P_____P__PP_P_ SH121968 -13.04 111.95 -1 -13.49 111.58 -13.04 111.95 TC -13.03 111.97 7 -13.40 111.85 TC 32 998 6 228
1968 SI WA 18:00:00 TS -13.46 111.57 571 571 O_____P__OP_O_ jtwc_sh SH121968 -13.30 111.70 -1 -13.65 111.34 -13.30 111.70 TC -13.30 111.72 7 -13.60 111.60 TC 30 999 6 228
1968 SI WA 21:00:00 TS -13.67 111.33 595 595 P_____P__PP_P_ SH121968 -13.57 111.45 -1 -13.80 111.11 -13.57 111.45 TC -13.55 111.47 7 -13.76 111.35 TC 30 999 6 229
1968 SI WA 23:00:00 TS -13.80 111.16 607 607 P_____P__PO_P_ SH121968 -13.73 111.28 -1 -13.90 110.95 -13.73 111.28 TC -13.70 111.30 7 -13.85 111.18 TC 30 999 6 232
1968 SI WA 1968-01-16 00:00:00 TS -13.85 111.08 619 619 O_____P__OP_O_ jtwc_sh SH121968 -13.80 111.20 -1 -13.95 110.88 -13.80 111.20 TC -13.76 111.22 7 -13.90 111.10 TC 30 999 6 236
1968 SI WA 01:00:00 TS -13.90 111.00 1000 bom 620 620 P_____O__PP_P_ SH121968 -13.85 111.12 -1 -14.00 110.80 1000 -13.85 111.12 TC -13.82 111.14 7 -13.95 111.02 TC 30 999 5 240
1968 SI WA 03:00:00 TS -13.99 110.84 634 634 P_____P__PP_P_ SH121968 -13.91 110.95 -1 -14.09 110.65 -13.91 110.95 TC -13.93 110.97 7 -14.06 110.85 TC 30 999 5 242
1968 SI WA 06:00:00 TS -14.11 110.60 649 649 O_____P__OP_O_ jtwc_sh SH121968 -14.00 110.70 -1 -14.23 110.41 -14.00 110.70 TC -14.07 110.72 7 -14.20 110.60 TC 30 1000 5 240
1968 SI WA 09:00:00 TS -14.26 110.35 678 678 P_____P__PP_P_ SH121968 -14.19 110.45 -1 -14.36 110.18 -14.19 110.45 TC -14.20 110.47 7 -14.30 110.35 TC 30 1000 6 238
1968 SI WA 11:00:00 TS -14.37 110.18 691 691 P_____P__PO_P_ SH121968 -14.33 110.28 -1 -14.44 110.02 -14.33 110.28 TC -14.30 110.30 1 -14.36 110.18 TC 30 1000 6 238
1968 SI WA 12:00:00 TS -14.42 110.09 693 693 O_____P__OP_O_ jtwc_sh SH121968 -14.40 110.20 -1 -14.49 109.94 -14.40 110.20 TC -14.35 110.21 1 -14.40 110.10 TC 30 1000 6 240
1968 SI WA 15:00:00 TS -14.57 109.83 721 721 P_____P__PP_P_ SH121968 -14.57 109.95 -1 -14.61 109.70 -14.57 109.95 TC -14.51 109.94 1 -14.55 109.84 TC 27 1000 6 240
1968 SI WA 18:00:00 TS -14.71 109.56 737 737 O_____P__OP_O_ jtwc_sh SH121968 -14.70 109.70 -1 -14.73 109.46 -14.70 109.70 TC -14.69 109.67 1 -14.70 109.60 TC 25 1001 6 242
1968 SI WA 21:00:00 TS -14.85 109.30 754 754 ______P___P_P_ SH121968 -1 -14.84 109.22 TC -14.87 109.39 1 -14.81 109.39 TC 25 1001 6 243
1968 SI WA 23:00:00 TS -14.93 109.13 770 770 ______P___O_P_ SH121968 -1 -14.92 109.06 TC -15.00 109.20 7 -14.87 109.26 TC 25 1001 5 246
1968 SI WA 1968-01-17 00:00:00 TS -14.96 109.04 783 783 ______P_____O_ -1 -14.96 108.98 7 -14.90 109.20 TC 25 1001 7 252
1968 SI WA 01:00:00 NR -15.00 108.90 1002 bom 786 ______O_______ -1 -15.00 108.90 1002 7 TC 9 252